sensor_id;sensor_type;location;lat;lon;timestamp;P1;durP1;ratioP1;P2;durP2;ratioP2
58512;SDS011;44302;47.914;10.642;2023-02-15T08:19:43;4.50;;;2.33;;
58512;SDS011;44302;47.914;10.642;2023-02-15T08:22:10;3.70;;;2.43;;
58512;SDS011;44302;47.914;10.642;2023-02-15T08:24:39;4.30;;;2.67;;
58512;SDS011;44302;47.914;10.642;2023-02-15T08:27:08;3.93;;;3.03;;
58512;SDS011;44302;47.914;10.642;2023-02-15T08:29:36;4.90;;;3.17;;
58512;SDS011;44302;47.914;10.642;2023-02-15T08:32:04;4.73;;;3.43;;
58512;SDS011;44302;47.914;10.642;2023-02-15T08:34:35;6.17;;;3.10;;
58512;SDS011;44302;47.914;10.642;2023-02-15T08:37:04;3.20;;;2.47;;
58512;SDS011;44302;47.914;10.642;2023-02-15T08:39:30;3.67;;;2.57;;
58512;SDS011;44302;47.914;10.642;2023-02-15T08:41:56;3.63;;;2.20;;
58512;SDS011;44302;47.914;10.642;2023-02-15T08:46:45;4.63;;;2.00;;
58512;SDS011;44302;47.914;10.642;2023-02-15T08:49:13;2.50;;;2.03;;
58512;SDS011;44302;47.914;10.642;2023-02-15T08:51:41;2.73;;;2.07;;
58512;SDS011;44302;47.914;10.642;2023-02-15T08:57:30;3.23;;;2.17;;
58512;SDS011;44302;47.914;10.642;2023-02-15T08:59:55;2.80;;;1.93;;
58512;SDS011;44302;47.914;10.642;2023-02-15T09:02:21;3.70;;;2.20;;
58512;SDS011;44302;47.914;10.642;2023-02-15T09:04:47;3.67;;;2.20;;
58512;SDS011;44302;47.914;10.642;2023-02-15T09:07:12;4.37;;;2.37;;
58512;SDS011;44302;47.914;10.642;2023-02-15T09:09:38;6.17;;;2.27;;
58512;SDS011;44302;47.914;10.642;2023-02-15T09:12:04;3.07;;;2.30;;
58512;SDS011;44302;47.914;10.642;2023-02-15T09:14:30;5.07;;;2.30;;
58512;SDS011;44302;47.914;10.642;2023-02-15T09:16:55;5.17;;;2.57;;
58512;SDS011;44302;47.914;10.642;2023-02-15T09:19:21;10.53;;;2.80;;
58512;SDS011;44302;47.914;10.642;2023-02-15T09:21:48;7.43;;;2.73;;
58512;SDS011;44302;47.914;10.642;2023-02-15T09:24:15;3.80;;;2.47;;
58512;SDS011;44302;47.914;10.642;2023-02-15T09:26:42;4.30;;;2.43;;
58512;SDS011;44302;47.914;10.642;2023-02-15T09:29:10;9.03;;;4.77;;
58512;SDS011;44302;47.914;10.642;2023-02-15T09:31:38;8.83;;;4.27;;
58512;SDS011;44302;47.914;10.642;2023-02-15T09:34:09;8.10;;;4.03;;
58512;SDS011;44302;47.914;10.642;2023-02-15T09:36:41;11.37;;;4.60;;
58512;SDS011;44302;47.914;10.642;2023-02-15T09:50:19;7.27;;;3.30;;
58512;SDS011;44302;47.914;10.642;2023-02-15T09:53:12;5.00;;;2.33;;
58512;SDS011;44302;47.914;10.642;2023-02-15T10:00:58;5.33;;;2.57;;
58512;SDS011;44302;47.914;10.642;2023-02-15T10:03:42;4.43;;;2.37;;
58512;SDS011;44302;47.914;10.642;2023-02-15T10:12:30;3.67;;;1.97;;
58512;SDS011;44302;47.914;10.642;2023-02-15T10:20:30;3.00;;;2.17;;
58512;SDS011;44302;47.914;10.642;2023-02-15T10:28:26;7.37;;;2.60;;
58512;SDS011;44302;47.914;10.642;2023-02-15T10:33:46;9.27;;;2.60;;
58512;SDS011;44302;47.914;10.642;2023-02-15T10:50:13;5.13;;;2.93;;
58512;SDS011;44302;47.914;10.642;2023-02-15T10:55:27;6.57;;;2.70;;
58512;SDS011;44302;47.914;10.642;2023-02-15T11:01:20;5.53;;;3.03;;
58512;SDS011;44302;47.914;10.642;2023-02-15T11:06:20;5.73;;;2.70;;
58512;SDS011;44302;47.914;10.642;2023-02-15T11:08:49;4.40;;;2.63;;
58512;SDS011;44302;47.914;10.642;2023-02-15T11:13:58;4.27;;;2.40;;
58512;SDS011;44302;47.914;10.642;2023-02-15T11:16:29;4.43;;;2.63;;
58512;SDS011;44302;47.914;10.642;2023-02-15T11:19:08;5.30;;;2.60;;
58512;SDS011;44302;47.914;10.642;2023-02-15T11:21:45;5.23;;;2.83;;
58512;SDS011;44302;47.914;10.642;2023-02-15T11:24:16;4.43;;;2.90;;
58512;SDS011;44302;47.914;10.642;2023-02-15T11:27:13;5.10;;;2.53;;
58512;SDS011;44302;47.914;10.642;2023-02-15T11:30:00;6.13;;;2.90;;
58512;SDS011;44302;47.914;10.642;2023-02-15T11:32:37;7.33;;;2.90;;
58512;SDS011;44302;47.914;10.642;2023-02-15T11:37:46;3.60;;;3.13;;
58512;SDS011;44302;47.914;10.642;2023-02-15T11:43:00;8.07;;;3.00;;
58512;SDS011;44302;47.914;10.642;2023-02-15T11:45:32;6.10;;;2.90;;
58512;SDS011;44302;47.914;10.642;2023-02-15T11:47:59;5.40;;;2.87;;
58512;SDS011;44302;47.914;10.642;2023-02-15T11:50:27;14.07;;;3.57;;
58512;SDS011;44302;47.914;10.642;2023-02-15T11:53:00;7.10;;;3.50;;
58512;SDS011;44302;47.914;10.642;2023-02-15T11:55:28;9.27;;;3.70;;
58512;SDS011;44302;47.914;10.642;2023-02-15T11:57:57;8.03;;;3.60;;
58512;SDS011;44302;47.914;10.642;2023-02-15T12:00:38;7.23;;;2.97;;
58512;SDS011;44302;47.914;10.642;2023-02-15T12:03:15;5.27;;;3.20;;
58512;SDS011;44302;47.914;10.642;2023-02-15T12:05:50;7.40;;;4.20;;
58512;SDS011;44302;47.914;10.642;2023-02-15T12:08:23;7.67;;;3.10;;
58512;SDS011;44302;47.914;10.642;2023-02-15T12:11:19;5.97;;;3.00;;
58512;SDS011;44302;47.914;10.642;2023-02-15T12:13:54;4.27;;;2.90;;
58512;SDS011;44302;47.914;10.642;2023-02-15T12:16:22;3.93;;;3.03;;
58512;SDS011;44302;47.914;10.642;2023-02-15T12:18:47;3.27;;;2.90;;
58512;SDS011;44302;47.914;10.642;2023-02-15T12:21:16;9.20;;;3.50;;
58512;SDS011;44302;47.914;10.642;2023-02-15T12:23:53;3.23;;;2.77;;
58512;SDS011;44302;47.914;10.642;2023-02-15T12:26:23;3.60;;;3.10;;
58512;SDS011;44302;47.914;10.642;2023-02-15T12:29:18;3.67;;;3.23;;
58512;SDS011;44302;47.914;10.642;2023-02-15T12:31:46;6.60;;;3.70;;
58512;SDS011;44302;47.914;10.642;2023-02-15T12:34:22;3.40;;;3.10;;
58512;SDS011;44302;47.914;10.642;2023-02-15T12:36:52;4.80;;;3.20;;
58512;SDS011;44302;47.914;10.642;2023-02-15T12:44:23;4.90;;;3.73;;
58512;SDS011;44302;47.914;10.642;2023-02-15T12:47:04;4.10;;;3.23;;
58512;SDS011;44302;47.914;10.642;2023-02-15T12:49:32;4.90;;;3.33;;
58512;SDS011;44302;47.914;10.642;2023-02-15T12:52:02;4.07;;;3.20;;
58512;SDS011;44302;47.914;10.642;2023-02-15T12:54:49;6.00;;;4.27;;
58512;SDS011;44302;47.914;10.642;2023-02-15T12:57:31;4.00;;;3.00;;
58512;SDS011;44302;47.914;10.642;2023-02-15T12:59:59;4.83;;;3.33;;
58512;SDS011;44302;47.914;10.642;2023-02-15T13:05:10;3.63;;;3.23;;
58512;SDS011;44302;47.914;10.642;2023-02-15T13:07:48;3.23;;;2.83;;
58512;SDS011;44302;47.914;10.642;2023-02-15T13:10:24;3.13;;;2.77;;
58512;SDS011;44302;47.914;10.642;2023-02-15T13:12:53;5.33;;;3.30;;
58512;SDS011;44302;47.914;10.642;2023-02-15T13:15:41;4.80;;;3.37;;
58512;SDS011;44302;47.914;10.642;2023-02-15T13:18:13;3.87;;;3.30;;
58512;SDS011;44302;47.914;10.642;2023-02-15T13:20:44;4.27;;;2.97;;
58512;SDS011;44302;47.914;10.642;2023-02-15T13:23:46;5.50;;;3.13;;
58512;SDS011;44302;47.914;10.642;2023-02-15T13:26:09;4.50;;;2.73;;
58512;SDS011;44302;47.914;10.642;2023-02-15T13:28:51;3.97;;;3.13;;
58512;SDS011;44302;47.914;10.642;2023-02-15T13:31:22;6.87;;;3.90;;
58512;SDS011;44302;47.914;10.642;2023-02-15T13:34:38;5.20;;;4.07;;
58512;SDS011;44302;47.914;10.642;2023-02-15T13:39:51;3.57;;;2.93;;
58512;SDS011;44302;47.914;10.642;2023-02-15T13:42:35;5.07;;;3.40;;
58512;SDS011;44302;47.914;10.642;2023-02-15T13:51:01;6.20;;;3.30;;
58512;SDS011;44302;47.914;10.642;2023-02-15T13:53:42;6.57;;;3.50;;
58512;SDS011;44302;47.914;10.642;2023-02-15T13:56:51;5.33;;;3.03;;
58512;SDS011;44302;47.914;10.642;2023-02-15T13:59:51;4.53;;;3.60;;
58512;SDS011;44302;47.914;10.642;2023-02-15T14:16:35;9.40;;;4.10;;
58512;SDS011;44302;47.914;10.642;2023-02-15T14:19:22;8.97;;;3.83;;
58512;SDS011;44302;47.914;10.642;2023-02-15T14:22:15;5.10;;;4.00;;
58512;SDS011;44302;47.914;10.642;2023-02-15T14:28:12;5.90;;;3.87;;
58512;SDS011;44302;47.914;10.642;2023-02-15T14:30:44;5.40;;;4.10;;
58512;SDS011;44302;47.914;10.642;2023-02-15T14:33:25;7.90;;;5.03;;
58512;SDS011;44302;47.914;10.642;2023-02-15T14:36:00;7.30;;;4.90;;
58512;SDS011;44302;47.914;10.642;2023-02-15T14:47:07;9.53;;;5.10;;
58512;SDS011;44302;47.914;10.642;2023-02-15T14:49:38;7.53;;;4.77;;
58512;SDS011;44302;47.914;10.642;2023-02-15T14:52:05;10.30;;;5.30;;
58512;SDS011;44302;47.914;10.642;2023-02-15T15:02:27;7.33;;;4.57;;
58512;SDS011;44302;47.914;10.642;2023-02-15T15:07:50;9.50;;;4.90;;
58512;SDS011;44302;47.914;10.642;2023-02-15T15:17:58;7.27;;;4.67;;
58512;SDS011;44302;47.914;10.642;2023-02-15T15:20:45;6.97;;;4.37;;
58512;SDS011;44302;47.914;10.642;2023-02-15T16:17:17;8.60;;;6.87;;
